Time;durP1;ratioP1;P1;durP2;ratioP2;P2;SDS_P1;SDS_P2;PMS_P1;PMS_P2;Temp;Humidity;BMP_temperature;BMP_pressure;BME280_temperature;BME280_humidity;BME280_pressure;Samples;Min_cycle;Max_cycle;Signal;HPM_P1;HPM_P2
2022/03/06 00:00:32;;;;;;;13.98;5.93;;;2.10;97.00;;;1.81;61.07;101603.16;5185196;28;20486;-69
2022/03/06 00:03:04;;;;;;;14.70;5.53;;;2.10;97.20;;;1.77;60.98;101606.28;5185187;28;20056;-70
2022/03/06 00:05:37;;;;;;;16.52;5.88;;;2.00;97.50;;;1.72;61.23;101605.00;5184867;28;20057;-69
2022/03/06 00:08:11;;;;;;;15.80;6.15;;;2.00;97.90;;;1.69;61.65;101607.28;5185069;28;20081;-70
2022/03/06 00:10:43;;;;;;;13.38;6.35;;;2.00;98.20;;;1.67;62.23;101603.72;5185026;28;20478;-70
2022/03/06 00:13:15;;;;;;;19.27;5.88;;;1.90;98.60;;;1.66;62.63;101607.06;5184915;28;20050;-71
2022/03/06 00:15:47;;;;;;;15.68;6.53;;;1.90;98.70;;;1.64;62.35;101600.91;5185185;28;20053;-69
2022/03/06 00:18:19;;;;;;;13.35;5.90;;;1.90;98.50;;;1.66;62.47;101604.47;5184792;28;20050;-69
2022/03/06 00:20:53;;;;;;;18.38;7.82;;;1.90;98.60;;;1.67;61.36;101598.56;5184951;28;20401;-70
2022/03/06 00:23:25;;;;;;;15.60;6.35;;;1.90;97.30;;;1.74;60.36;101605.13;5184882;28;20480;-69
2022/03/06 00:25:57;;;;;;;17.20;6.00;;;2.00;97.10;;;1.79;60.31;101609.88;5184819;28;20475;-69
2022/03/06 00:28:29;;;;;;;20.33;7.80;;;2.00;96.70;;;1.82;59.92;101604.97;5184816;28;20402;-70
2022/03/06 00:31:01;;;;;;;16.00;6.18;;;2.10;96.40;;;1.84;59.99;101607.69;5184681;28;20045;-69
2022/03/06 00:33:33;;;;;;;17.90;6.82;;;2.10;96.70;;;1.84;60.45;101602.53;5184570;28;20050;-70
2022/03/06 00:36:07;;;;;;;20.10;7.55;;;2.10;96.90;;;1.82;60.45;101606.63;5184530;28;20401;-69
2022/03/06 00:38:39;;;;;;;16.45;6.43;;;2.10;97.10;;;1.79;60.39;101606.41;5184619;28;20052;-69
2022/03/06 00:41:12;;;;;;;14.90;6.45;;;2.00;97.00;;;1.74;61.04;101606.00;5184500;28;20054;-69
2022/03/06 00:43:44;;;;;;;15.85;6.30;;;2.00;97.30;;;1.69;60.61;101607.28;5184603;28;20053;-69
2022/03/06 00:46:16;;;;;;;15.15;5.97;;;2.00;97.40;;;1.65;60.97;101610.41;5184434;28;20052;-69
2022/03/06 00:48:48;;;;;;;13.40;5.57;;;1.90;97.60;;;1.62;61.32;101612.69;5184555;28;20132;-69
2022/03/06 00:51:21;;;;;;;15.00;5.68;;;1.90;97.60;;;1.55;61.27;101616.44;5184196;28;20050;-70
2022/03/06 00:53:53;;;;;;;19.13;5.85;;;1.80;97.70;;;1.51;61.07;101618.63;5184451;28;20052;-70
2022/03/06 00:56:25;;;;;;;18.48;6.25;;;1.80;97.80;;;1.48;61.29;101615.78;5184053;28;20065;-69
2022/03/06 00:58:57;;;;;;;14.30;6.40;;;1.80;97.90;;;1.45;61.55;101620.69;5184377;28;20046;-70
2022/03/06 01:01:29;;;;;;;15.98;6.43;;;1.70;98.00;;;1.40;61.67;101617.72;5184794;28;20057;-70
2022/03/06 01:04:01;;;;;;;19.85;6.55;;;1.70;98.40;;;1.36;61.95;101626.81;5188499;28;20049;-70
2022/03/06 01:06:35;;;;;;;17.85;5.85;;;1.70;98.60;;;1.33;61.95;101620.56;5188185;28;20050;-70
2022/03/06 01:09:07;;;;;;;18.02;6.65;;;1.70;98.60;;;1.29;62.51;101619.38;5188202;28;20050;-69
2022/03/06 01:11:39;;;;;;;14.80;6.03;;;1.60;98.90;;;1.27;62.22;101626.06;5188127;28;20056;-69
2022/03/06 01:14:12;;;;;;;14.75;7.28;;;1.60;98.80;;;1.23;62.59;101621.41;5188307;28;20398;-69
2022/03/06 01:16:44;;;;;;;15.05;5.95;;;1.50;98.80;;;1.18;62.70;101635.56;5188358;28;20046;-70
2022/03/06 01:19:16;;;;;;;15.85;6.22;;;1.50;99.10;;;1.15;62.95;101625.00;5187742;28;20594;-70
2022/03/06 01:21:49;;;;;;;15.98;6.65;;;1.50;99.30;;;1.12;63.40;101641.84;5188175;28;20046;-69
2022/03/06 01:24:21;;;;;;;12.30;5.40;;;1.40;99.60;;;1.08;63.28;101627.84;5188274;28;20042;-70
2022/03/06 01:26:53;;;;;;;17.88;6.88;;;1.40;99.80;;;1.05;63.55;101637.84;5187997;28;20410;-70
2022/03/06 01:29:25;;;;;;;15.27;5.75;;;1.40;99.80;;;1.03;63.94;101634.22;5187844;28;20049;-69
2022/03/06 01:31:57;;;;;;;18.30;6.25;;;1.40;99.90;;;1.03;63.75;101639.38;5187973;28;20050;-70
2022/03/06 01:34:29;;;;;;;16.40;6.82;;;1.30;99.90;;;0.99;64.19;101642.47;5187431;28;20056;-69
2022/03/06 01:37:03;;;;;;;16.60;6.03;;;1.30;99.90;;;0.95;64.11;101636.16;5187861;28;20056;-70
2022/03/06 01:39:35;;;;;;;16.38;5.90;;;1.30;99.90;;;0.92;64.67;101637.56;5188010;28;20050;-70
2022/03/06 01:42:07;;;;;;;15.43;5.80;;;1.30;99.90;;;0.89;65.06;101637.28;5187929;28;20056;-69
2022/03/06 01:44:39;;;;;;;15.80;6.00;;;1.20;99.90;;;0.84;64.76;101634.31;5187706;28;20045;-70
2022/03/06 01:47:10;;;;;;;17.00;7.25;;;1.20;99.90;;;0.83;65.17;101640.22;5187617;28;20050;-69
2022/03/06 01:49:42;;;;;;;18.42;7.10;;;1.20;99.90;;;0.79;65.48;101639.06;5187699;28;20399;-69
2022/03/06 01:52:16;;;;;;;14.10;5.72;;;1.10;99.90;;;0.77;65.64;101644.81;5187735;28;20136;-69
2022/03/06 01:54:48;;;;;;;14.77;6.43;;;1.10;99.90;;;0.70;65.54;101637.34;5187467;28;20384;-69
2022/03/06 01:57:20;;;;;;;16.00;5.68;;;1.10;99.90;;;0.72;65.73;101633.28;5187175;28;20056;-69
2022/03/06 01:59:52;;;;;;;13.05;5.60;;;1.10;99.90;;;0.70;65.80;101638.25;5187591;28;20502;-69
2022/03/06 02:02:24;;;;;;;16.65;5.80;;;1.00;99.90;;;0.68;65.40;101637.22;5187155;28;20050;-69
2022/03/06 02:04:56;;;;;;;15.27;5.63;;;1.00;99.90;;;0.67;66.04;101638.00;5187660;28;20045;-69
2022/03/06 02:07:29;;;;;;;13.40;5.85;;;1.00;99.90;;;0.64;66.02;101632.56;5186964;28;20054;-69
2022/03/06 02:10:02;;;;;;;18.58;6.45;;;1.00;99.90;;;0.62;65.70;101631.56;5187582;28;20050;-70
2022/03/06 02:12:35;;;;;;;13.48;6.22;;;1.00;99.90;;;0.59;66.07;101636.44;5186849;28;20077;-70
2022/03/06 02:15:10;;;;;;;12.05;5.57;;;1.00;99.90;;;0.57;65.74;101634.47;5187338;28;20052;-70
2022/03/06 02:17:42;;;;;;;15.20;5.60;;;0.90;99.90;;;0.55;65.86;101639.47;5186743;28;20067;-70
2022/03/06 02:20:17;;;;;;;14.18;5.40;;;0.90;99.90;;;0.54;66.03;101645.38;5187281;28;20049;-70
2022/03/06 02:22:53;;;;;;;14.40;5.95;;;0.90;99.90;;;0.50;65.86;101635.59;5187080;28;20056;-70
2022/03/06 02:25:31;;;;;;;13.98;6.22;;;0.90;99.90;;;0.50;66.18;101639.06;5186978;28;20053;-69
2022/03/06 02:28:08;;;;;;;12.25;5.65;;;0.90;99.90;;;0.49;66.31;101644.97;5186473;28;20057;-69
2022/03/06 02:30:42;;;;;;;16.60;6.32;;;0.80;99.90;;;0.49;66.35;101633.81;5187139;28;20060;-69
2022/03/06 02:33:14;;;;;;;17.30;7.57;;;0.80;99.90;;;0.46;66.18;101641.25;5186660;28;20434;-71
2022/03/06 02:35:46;;;;;;;17.50;6.53;;;0.80;99.90;;;0.44;66.65;101642.75;5186777;28;20060;-70
2022/03/06 02:38:19;;;;;;;18.25;6.78;;;0.80;99.90;;;0.41;66.74;101643.41;5186793;28;20494;-69
2022/03/06 02:40:54;;;;;;;20.83;6.82;;;0.80;99.90;;;0.38;66.69;101640.53;5187070;28;20050;-70
2022/03/06 02:43:26;;;;;;;26.08;8.25;;;0.70;99.90;;;0.37;67.11;101645.53;5186631;28;20053;-69
2022/03/06 02:45:58;;;;;;;34.22;9.20;;;0.70;99.90;;;0.34;67.44;101640.16;5186571;28;20046;-69
2022/03/06 02:48:30;;;;;;;30.98;9.43;;;0.70;99.90;;;0.32;67.23;101647.69;5185662;28;20053;-69
2022/03/06 02:51:02;;;;;;;29.05;10.13;;;0.70;99.90;;;0.30;67.79;101638.97;5185782;28;20060;-70
2022/03/06 02:53:35;;;;;;;22.85;7.85;;;0.60;99.90;;;0.29;67.82;101641.41;5186140;28;20053;-69
2022/03/06 02:56:07;;;;;;;18.67;6.18;;;0.60;99.90;;;0.30;67.82;101645.78;5185630;28;20050;-69
2022/03/06 02:58:39;;;;;;;21.75;6.90;;;0.60;99.90;;;0.28;67.90;101634.47;5186274;28;20052;-70
2022/03/06 03:01:11;;;;;;;21.85;6.28;;;0.70;99.90;;;0.29;67.80;101639.75;5186024;28;20053;-69
2022/03/06 03:03:44;;;;;;;22.13;6.60;;;0.60;99.90;;;0.29;68.06;101639.75;5185473;28;20052;-69
2022/03/06 03:06:16;;;;;;;19.55;6.85;;;0.60;99.90;;;0.29;68.40;101643.97;5185519;28;20111;-69
2022/03/06 03:08:49;;;;;;;16.20;6.25;;;0.60;99.90;;;0.32;68.37;101642.56;5185413;28;20052;-68
2022/03/06 03:11:21;;;;;;;17.73;6.47;;;0.70;99.90;;;0.34;68.71;101640.16;5185194;28;20057;-69
2022/03/06 03:13:53;;;;;;;16.98;6.72;;;0.70;99.90;;;0.37;68.45;101642.97;5185428;28;20118;-69
2022/03/06 03:16:25;;;;;;;17.05;6.57;;;0.70;99.90;;;0.40;68.61;101643.28;5185617;28;20064;-69
2022/03/06 03:18:57;;;;;;;19.42;7.10;;;0.70;99.90;;;0.40;68.17;101646.75;5185647;28;20411;-70
2022/03/06 03:21:29;;;;;;;15.82;5.80;;;0.70;99.90;;;0.46;67.25;101652.41;5185183;28;20050;-69
2022/03/06 03:24:03;;;;;;;17.85;6.38;;;0.80;99.90;;;0.50;66.87;101645.88;5184806;28;20046;-70
2022/03/06 03:26:35;;;;;;;18.60;7.00;;;0.80;99.90;;;0.53;66.82;101643.59;5185044;28;20056;-69
2022/03/06 03:29:07;;;;;;;14.73;6.05;;;0.90;99.90;;;0.55;65.81;101647.19;5185473;28;20483;-69
2022/03/06 03:31:39;;;;;;;13.77;6.13;;;0.90;99.90;;;0.54;66.19;101647.94;5185019;28;20052;-69
2022/03/06 03:34:11;;;;;;;17.45;6.25;;;0.90;99.90;;;0.54;65.73;101653.09;5185421;28;20056;-69
2022/03/06 03:36:43;;;;;;;19.90;6.80;;;0.90;99.90;;;0.54;65.71;101658.22;5185417;28;20058;-69
2022/03/06 03:39:17;;;;;;;14.65;6.20;;;0.90;99.90;;;0.57;65.83;101666.16;5185243;28;20140;-69
2022/03/06 03:41:49;;;;;;;16.73;6.30;;;0.90;99.90;;;0.60;65.65;101661.31;5184810;28;20049;-69
2022/03/06 03:44:21;;;;;;;18.58;6.32;;;0.90;99.90;;;0.63;66.11;101664.13;5185112;28;20053;-69
2022/03/06 03:46:56;;;;;;;14.55;5.82;;;1.00;99.90;;;0.66;66.13;101664.44;5184846;28;20050;-70
2022/03/06 03:49:28;;;;;;;15.63;6.45;;;1.00;99.90;;;0.70;65.84;101658.78;5184891;28;20072;-70
2022/03/06 03:52:00;;;;;;;17.42;6.03;;;1.00;99.90;;;0.73;66.47;101671.00;5184817;28;20050;-69
2022/03/06 03:54:35;;;;;;;17.45;6.43;;;1.00;99.90;;;0.74;66.39;101668.56;5185050;28;20054;-69
2022/03/06 03:57:07;;;;;;;16.80;6.80;;;1.00;99.90;;;0.76;65.79;101663.56;5185138;28;20100;-69
2022/03/06 03:59:39;;;;;;;16.58;6.43;;;1.10;99.90;;;0.81;66.03;101662.28;5184676;28;20072;-70
2022/03/06 04:02:11;;;;;;;18.48;6.93;;;1.10;99.90;;;0.85;65.96;101666.00;5184640;28;20509;-69
2022/03/06 04:04:43;;;;;;;15.82;6.10;;;1.10;99.90;;;0.86;65.80;101663.59;5184496;28;20053;-70
2022/03/06 04:07:16;;;;;;;19.63;7.13;;;1.10;99.90;;;0.86;65.81;101670.41;5184319;28;20046;-71
2022/03/06 04:09:49;;;;;;;18.48;6.03;;;1.10;99.90;;;0.85;66.43;101668.56;5184691;28;20045;-69
2022/03/06 04:12:21;;;;;;;15.68;5.93;;;1.10;99.90;;;0.86;67.23;101666.16;5185242;28;20045;-69
2022/03/06 04:14:53;;;;;;;15.52;7.38;;;1.20;99.90;;;0.89;67.62;101665.53;5184899;28;20054;-69
2022/03/06 04:17:25;;;;;;;16.10;6.35;;;1.20;99.90;;;0.89;67.64;101680.94;5207257;23;20128;-89
2022/03/06 04:19:57;;;;;;;18.67;6.63;;;1.20;99.90;;;0.90;67.83;101677.59;5251971;23;20569;-72
2022/03/06 04:22:29;;;;;;;15.57;6.25;;;1.20;99.90;;;0.90;67.98;101677.59;5147949;28;20057;-72
2022/03/06 04:25:03;;;;;;;20.67;6.80;;;1.20;99.90;;;0.92;68.68;101679.53;5163016;28;20046;-72
2022/03/06 04:27:35;;;;;;;19.35;6.10;;;1.20;99.90;;;0.95;67.99;101681.47;5164005;28;20074;-72
2022/03/06 04:30:08;;;;;;;15.18;6.32;;;1.30;99.90;;;0.96;67.99;101691.84;5164228;28;20054;-71
2022/03/06 04:32:40;;;;;;;16.38;7.57;;;1.20;99.90;;;0.96;68.58;101693.53;5150082;28;20420;-73
2022/03/06 04:35:12;;;;;;;16.42;6.10;;;1.20;99.90;;;0.97;68.78;101695.31;5143672;28;20053;-72
2022/03/06 04:37:44;;;;;;;14.40;5.50;;;1.30;99.90;;;0.98;68.36;101697.16;5143790;28;20484;-72
2022/03/06 04:40:18;;;;;;;17.70;8.02;;;1.30;99.90;;;0.97;68.14;101698.78;5144408;28;20073;-72
2022/03/06 04:42:50;;;;;;;15.68;7.25;;;1.30;99.90;;;0.99;68.96;101701.50;5144206;28;20427;-72
2022/03/06 04:45:24;;;;;;;17.77;6.38;;;1.30;99.90;;;1.02;68.39;101706.91;5143804;28;20504;-72
2022/03/06 04:47:56;;;;;;;16.38;6.35;;;1.30;99.90;;;1.04;68.57;101700.22;5143525;28;20050;-71
2022/03/06 04:50:28;;;;;;;17.15;6.18;;;1.30;99.90;;;1.07;68.35;101710.78;5142180;28;20055;-72
2022/03/06 04:53:00;;;;;;;15.18;6.40;;;1.30;99.90;;;1.08;68.59;101712.56;5143859;28;20090;-72
2022/03/06 04:55:34;;;;;;;17.67;6.72;;;1.40;99.90;;;1.11;68.11;101706.78;5143743;28;20038;-72
2022/03/06 04:58:06;;;;;;;20.83;7.35;;;1.40;99.90;;;1.14;67.92;101715.69;5143322;28;20059;-71
2022/03/06 05:00:38;;;;;;;15.85;6.97;;;1.40;99.90;;;1.18;67.79;101707.47;5143586;28;20051;-71
2022/03/06 05:03:10;;;;;;;14.77;6.50;;;1.50;99.90;;;1.21;68.15;101706.84;5143813;28;20055;-72
2022/03/06 05:05:42;;;;;;;17.60;7.07;;;1.50;99.90;;;1.22;68.04;101709.53;5143738;28;20047;-72
2022/03/06 05:08:14;;;;;;;17.88;6.18;;;1.50;99.90;;;1.22;67.72;101712.09;5143216;28;20051;-72
2022/03/06 05:10:47;;;;;;;15.40;6.57;;;1.50;99.90;;;1.22;67.47;101713.75;5143632;28;20055;-72
2022/03/06 05:13:20;;;;;;;17.08;7.03;;;1.50;99.90;;;1.18;67.01;101706.59;5143768;28;20054;-72
2022/03/06 05:15:52;;;;;;;24.45;9.15;;;1.50;99.90;;;1.18;67.32;101710.06;5143829;28;20126;-72
2022/03/06 05:18:24;;;;;;;22.05;7.97;;;1.50;99.90;;;1.18;67.24;101704.91;5143394;28;20051;-72
2022/03/06 05:20:56;;;;;;;18.67;7.57;;;1.50;99.90;;;1.18;66.81;101702.34;5143224;28;20054;-72
2022/03/06 05:23:28;;;;;;;18.55;7.30;;;1.50;99.90;;;1.19;66.87;101701.56;5143531;28;20057;-73
2022/03/06 05:26:02;;;;;;;23.90;7.70;;;1.50;99.90;;;1.23;66.46;101716.47;5143495;28;20062;-71
2022/03/06 05:28:34;;;;;;;16.23;7.00;;;1.50;99.90;;;1.26;65.50;101701.31;5143522;28;20209;-72
2022/03/06 05:31:06;;;;;;;21.23;8.05;;;1.50;99.90;;;1.26;65.35;101711.59;5143700;28;20059;-72
2022/03/06 05:33:38;;;;;;;18.58;7.10;;;1.50;99.90;;;1.27;65.61;101715.06;5143323;28;20055;-72
2022/03/06 05:36:10;;;;;;;21.50;7.13;;;1.50;99.90;;;1.27;65.68;101715.97;5143377;28;20050;-71
2022/03/06 05:38:42;;;;;;;19.25;7.55;;;1.60;99.90;;;1.29;65.31;101711.84;5143068;28;20122;-72
2022/03/06 05:41:15;;;;;;;18.95;6.70;;;1.60;99.90;;;1.33;65.64;101718.16;5143563;28;20051;-72
2022/03/06 05:43:47;;;;;;;14.68;6.75;;;1.60;99.90;;;1.32;65.38;101717.28;5143271;28;20502;-72
2022/03/06 05:46:19;;;;;;;17.55;7.45;;;1.60;99.90;;;1.33;65.50;101718.16;5143394;28;20503;-72
2022/03/06 05:48:51;;;;;;;21.13;8.05;;;1.60;99.90;;;1.34;65.44;101715.72;5145278;28;20141;-72
2022/03/06 05:51:23;;;;;;;19.30;6.65;;;1.60;99.90;;;1.34;66.27;101726.00;5147227;28;20061;-72
2022/03/06 05:53:55;;;;;;;19.17;9.20;;;1.60;99.90;;;1.33;65.79;101713.94;5146979;28;20051;-72
2022/03/06 05:56:29;;;;;;;19.48;7.78;;;1.60;99.90;;;1.34;66.00;101726.00;5147343;28;20046;-72
2022/03/06 05:59:03;;;;;;;17.42;6.97;;;1.60;99.90;;;1.34;65.81;101728.56;5146790;28;20526;-72
2022/03/06 06:01:35;;;;;;;17.50;6.22;;;1.60;99.90;;;1.34;65.64;101732.81;5147118;28;20085;-73
2022/03/06 06:04:07;;;;;;;18.10;7.07;;;1.60;99.90;;;1.34;65.88;101736.28;5146743;28;20065;-71
2022/03/06 06:06:39;;;;;;;16.08;7.00;;;1.60;99.90;;;1.33;65.57;101739.63;5146787;28;20054;-72
2022/03/06 06:09:11;;;;;;;20.17;7.05;;;1.70;99.90;;;1.35;65.78;101732.94;5146275;28;20135;-72
2022/03/06 06:11:45;;;;;;;17.90;7.72;;;1.60;99.90;;;1.34;65.85;101741.41;5146775;28;20502;-71
2022/03/06 06:14:17;;;;;;;15.18;7.20;;;1.60;99.90;;;1.35;65.48;101747.44;5146756;28;20426;-72
2022/03/06 06:16:49;;;;;;;18.05;7.00;;;1.60;99.90;;;1.33;65.94;101749.91;5146475;28;20047;-72
2022/03/06 06:19:21;;;;;;;17.42;7.40;;;1.60;99.90;;;1.38;65.69;101746.84;5146019;28;20051;-72
2022/03/06 06:21:53;;;;;;;21.38;7.50;;;1.60;99.90;;;1.40;66.02;101755.56;5146585;28;20517;-71
2022/03/06 06:24:25;;;;;;;17.75;6.60;;;1.60;99.90;;;1.38;66.28;101757.13;5154538;28;20050;-72
2022/03/06 06:26:58;;;;;;;16.77;6.78;;;1.60;99.90;;;1.35;67.26;101762.88;5146140;28;20524;-72
2022/03/06 06:29:30;;;;;;;20.38;7.40;;;1.60;99.90;;;1.39;66.88;101759.81;5146212;28;20046;-72
2022/03/06 06:32:02;;;;;;;19.02;6.63;;;1.70;99.90;;;1.44;67.44;101760.22;5146610;28;20051;-72
2022/03/06 06:34:34;;;;;;;20.50;8.40;;;1.70;99.90;;;1.48;67.60;101781.16;5146535;28;20050;-72
2022/03/06 06:37:06;;;;;;;19.20;7.35;;;1.70;99.90;;;1.51;67.19;101777.97;5146190;28;20491;-72
2022/03/06 06:39:38;;;;;;;19.35;8.60;;;1.70;99.90;;;1.56;66.73;101771.53;5146336;28;20415;-72
2022/03/06 06:42:12;;;;;;;15.80;6.65;;;1.80;99.90;;;1.59;66.83;101780.41;5146086;28;20319;-72
2022/03/06 06:44:44;;;;;;;20.35;7.13;;;1.80;99.90;;;1.65;66.26;101784.28;5146358;28;20055;-72
2022/03/06 06:47:16;;;;;;;19.15;7.22;;;1.90;99.90;;;1.67;66.09;101786.22;5145821;28;20055;-72
2022/03/06 06:49:48;;;;;;;20.98;7.80;;;1.90;99.90;;;1.68;66.20;101790.56;5145948;28;20053;-72
2022/03/06 06:52:20;;;;;;;20.77;7.78;;;1.90;99.90;;;1.71;65.98;101796.00;5145644;28;20046;-72
2022/03/06 06:54:52;;;;;;;17.48;7.03;;;1.90;99.90;;;1.73;65.86;101779.03;5131840;28;20050;-73
2022/03/06 06:57:26;;;;;;;19.02;6.55;;;1.90;99.90;;;1.78;65.80;101788.03;5133218;28;20047;-71
2022/03/06 06:59:58;;;;;;;18.45;7.22;;;1.90;99.90;;;1.84;65.42;101798.84;5138938;28;20050;-72
2022/03/06 07:02:30;;;;;;;17.50;6.88;;;2.00;99.90;;;1.90;65.50;101795.91;5125244;28;20061;-72
2022/03/06 07:05:03;;;;;;;17.23;6.88;;;2.10;99.90;;;1.94;64.82;101804.75;5133492;28;20053;-71
2022/03/06 07:07:35;;;;;;;17.98;6.88;;;2.10;99.90;;;1.98;64.28;101801.69;5144212;28;20049;-72
2022/03/06 07:10:09;;;;;;;19.38;7.63;;;2.20;99.90;;;1.99;63.95;101808.63;5144542;28;20059;-72
2022/03/06 07:12:45;;;;;;;17.80;6.55;;;2.20;99.90;;;2.05;64.05;101819.44;5144358;28;20050;-72
2022/03/06 07:15:17;;;;;;;19.30;8.18;;;2.20;99.90;;;2.10;63.82;101819.06;5144817;28;20415;-73
2022/03/06 07:17:49;;;;;;;19.50;7.95;;;2.30;99.90;;;2.18;63.39;101812.00;5136105;28;20056;-74
2022/03/06 07:20:21;;;;;;;19.00;9.05;;;2.30;99.90;;;2.25;63.07;101813.41;5144609;28;20393;-73
2022/03/06 07:22:54;;;;;;;17.67;7.03;;;2.40;99.90;;;2.30;63.52;101812.13;5140522;28;20047;-72
2022/03/06 07:25:26;;;;;;;17.17;7.10;;;2.40;99.90;;;2.35;63.56;101818.56;5125062;28;20040;-73
2022/03/06 07:28:00;;;;;;;19.52;7.15;;;2.50;99.90;;;2.41;63.13;101824.19;5123300;28;20053;-72
2022/03/06 07:30:31;;;;;;;19.95;9.15;;;2.50;99.90;;;2.48;63.26;101823.97;5124584;28;20047;-72
2022/03/06 07:33:04;;;;;;;20.55;7.80;;;2.60;99.90;;;2.56;62.83;101827.16;5124175;28;20055;-72
2022/03/06 07:35:37;;;;;;;20.08;8.07;;;2.70;99.90;;;2.58;62.17;101834.22;5127269;28;20051;-72
2022/03/06 07:38:09;;;;;;;17.48;7.50;;;2.70;99.80;;;2.60;62.61;101829.22;5140993;28;20053;-72
2022/03/06 07:40:41;;;;;;;19.63;7.20;;;2.70;99.40;;;2.63;62.47;101835.53;5141913;28;20055;-72
2022/03/06 07:43:14;;;;;;;19.58;7.93;;;2.70;99.40;;;2.68;62.05;101838.50;5128144;28;20489;-72
2022/03/06 07:45:46;;;;;;;19.42;7.55;;;2.80;99.40;;;2.77;62.16;101830.63;5140497;28;20056;-72
2022/03/06 07:48:18;;;;;;;21.92;8.55;;;2.80;99.30;;;2.80;62.27;101831.75;5144234;28;20054;-72
2022/03/06 07:50:50;;;;;;;26.55;9.15;;;2.90;99.40;;;2.89;62.15;101840.25;5144910;28;20129;-73
2022/03/06 07:53:22;;;;;;;24.30;9.07;;;3.00;99.50;;;2.97;61.97;101828.88;5143500;28;20049;-72
2022/03/06 07:55:54;;;;;;;21.05;8.98;;;3.00;99.40;;;3.10;61.57;101835.03;5127126;28;20058;-72
2022/03/06 07:58:28;;;;;;;22.73;7.88;;;3.10;99.40;;;3.17;61.44;101827.03;5123796;28;20054;-72
2022/03/06 08:01:00;;;;;;;18.90;8.07;;;3.20;99.30;;;3.29;61.48;101832.28;5123919;28;20152;-72
2022/03/06 08:03:32;;;;;;;17.55;7.32;;;3.30;99.10;;;3.37;61.06;101832.09;5142153;28;20047;-71
2022/03/06 08:06:04;;;;;;;22.50;8.10;;;3.40;99.10;;;3.48;60.46;101833.84;5133794;28;20047;-73
2022/03/06 08:08:36;;;;;;;22.23;9.10;;;3.50;98.80;;;3.59;60.49;101836.41;5123422;28;20054;-72
2022/03/06 08:11:08;;;;;;;22.58;8.60;;;3.50;98.50;;;3.69;59.71;101844.06;5126955;28;20134;-72
2022/03/06 08:13:41;;;;;;;18.77;7.75;;;3.60;98.00;;;3.72;59.66;101842.66;5128075;28;20051;-72
2022/03/06 08:16:13;;;;;;;22.10;8.65;;;3.70;98.00;;;3.80;59.56;101835.50;5133063;28;20049;-73
2022/03/06 08:18:45;;;;;;;21.67;8.27;;;3.70;98.00;;;4.00;59.79;101840.53;5142785;28;20068;-72
2022/03/06 08:21:17;;;;;;;21.05;8.02;;;3.80;98.10;;;4.17;59.04;101838.34;5144484;28;20058;-73
2022/03/06 08:23:51;;;;;;;21.80;8.65;;;4.00;97.90;;;4.44;58.57;101845.63;5144545;28;20073;-72
2022/03/06 08:26:24;;;;;;;19.67;9.00;;;4.20;97.80;;;4.76;57.93;101829.03;5144144;28;20053;-73
2022/03/06 08:28:57;;;;;;;20.20;8.05;;;4.40;97.10;;;5.05;56.59;101839.84;5143925;28;20066;-71
2022/03/06 08:31:29;;;;;;;18.85;8.10;;;4.60;96.30;;;5.47;55.92;101830.81;5136701;28;20049;-70
2022/03/06 08:34:01;;;;;;;20.90;8.70;;;4.90;95.70;;;5.98;54.31;101838.81;5128759;28;20043;-72
2022/03/06 08:36:34;;;;;;;21.80;7.93;;;5.30;94.80;;;6.62;52.80;101841.44;5123577;28;20137;-71
2022/03/06 08:39:07;;;;;;;20.23;8.63;;;5.70;93.60;;;7.97;50.01;101836.34;5134028;28;20046;-72
2022/03/06 08:41:39;;;;;;;17.60;7.85;;;6.50;91.90;;;9.49;45.87;101828.88;5134136;28;20130;-70
2022/03/06 08:44:12;;;;;;;20.38;8.32;;;7.60;86.70;;;10.32;49.29;101834.25;5138224;28;20053;-71
2022/03/06 08:46:44;;;;;;;17.90;7.75;;;8.60;94.20;;;10.98;43.37;101832.38;5144265;28;20051;-73
2022/03/06 08:49:17;;;;;;;20.77;9.18;;;9.40;78.50;;;11.92;40.16;101846.50;5143811;28;20385;-71
2022/03/06 08:51:49;;;;;;;14.85;7.95;;;10.20;70.70;;;12.55;38.11;101848.41;5133491;28;20116;-71
2022/03/06 08:54:21;;;;;;;15.85;8.05;;;10.80;66.40;;;12.96;36.51;101853.69;5124264;29;20047;-71
2022/03/06 08:56:53;;;;;;;19.58;8.45;;;11.30;62.80;;;13.38;35.28;101845.84;5124328;29;20043;-71
2022/03/06 08:59:26;;;;;;;18.80;8.02;;;11.70;60.60;;;13.50;34.87;101854.19;5123785;29;20485;-70
2022/03/06 09:01:58;;;;;;;16.20;7.90;;;12.00;58.90;;;13.39;34.62;101854.59;5124272;29;20055;-70
2022/03/06 09:04:32;;;;;;;18.10;8.15;;;12.00;57.50;;;13.11;34.18;101855.16;5124077;29;20518;-71
2022/03/06 09:07:05;;;;;;;18.10;8.43;;;11.90;56.40;;;12.69;35.21;101862.97;5123717;29;20051;-72
2022/03/06 09:09:37;;;;;;;19.10;8.45;;;11.70;57.10;;;12.33;36.88;101863.19;5123888;29;20126;-72
2022/03/06 09:12:10;;;;;;;18.85;8.65;;;11.60;59.40;;;12.07;37.25;101869.84;5123509;29;20055;-71
2022/03/06 09:14:43;;;;;;;18.75;8.98;;;11.40;59.30;;;11.76;38.28;101869.19;5123867;29;20057;-72
2022/03/06 09:17:15;;;;;;;18.05;9.35;;;11.20;59.90;;;11.59;39.03;101861.44;5123337;29;20047;-70
2022/03/06 09:19:47;;;;;;;18.90;8.45;;;11.10;60.60;;;11.65;39.23;101856.53;5123805;29;20142;-70
2022/03/06 09:22:19;;;;;;;18.40;8.15;;;11.10;61.10;;;11.38;38.88;101857.81;5124929;28;20047;-72
2022/03/06 09:24:51;;;;;;;19.95;8.85;;;10.90;60.40;;;11.00;39.33;101868.97;5137591;28;20051;-72
2022/03/06 09:27:23;;;;;;;19.90;9.07;;;10.60;60.60;;;10.90;40.18;101867.66;5127302;29;20066;-71
2022/03/06 09:29:57;;;;;;;15.73;9.15;;;10.50;61.70;;;10.96;40.37;101856.63;5131087;28;20419;-71
2022/03/06 09:32:29;;;;;;;20.92;9.30;;;10.50;62.40;;;10.99;40.63;101859.38;5139222;28;20500;-73
2022/03/06 09:35:01;;;;;;;18.30;8.27;;;10.50;63.10;;;10.95;40.92;101862.63;5134947;28;20065;-72
2022/03/06 09:37:33;;;;;;;18.35;8.75;;;10.50;63.10;;;10.77;41.30;101867.84;5143153;28;20042;-72
2022/03/06 09:40:08;;;;;;;17.75;7.80;;;10.40;63.60;;;10.66;41.54;101869.00;5148023;28;20054;-73
2022/03/06 09:42:40;;;;;;;19.52;8.38;;;10.30;63.90;;;10.55;41.87;101869.31;5148389;28;20051;-71
2022/03/06 09:45:16;;;;;;;19.67;9.50;;;10.20;64.10;;;10.46;41.93;101879.28;5147909;28;20412;-70
2022/03/06 09:47:48;;;;;;;14.07;7.28;;;10.20;63.90;;;10.47;42.69;101875.84;5154520;28;20061;-72
2022/03/06 09:50:20;;;;;;;17.50;7.43;;;10.10;66.60;;;10.70;42.30;101874.47;5155946;28;20043;-72
2022/03/06 09:52:52;;;;;;;16.65;8.07;;;10.30;65.90;;;10.93;42.23;101873.00;5165673;28;20051;-70
2022/03/06 09:55:25;;;;;;;19.60;7.78;;;10.50;66.30;;;11.24;43.06;101864.09;5167907;28;20054;-69
2022/03/06 09:57:58;;;;;;;18.67;7.78;;;10.80;67.60;;;11.54;41.28;101857.75;5167236;28;20137;-71
2022/03/06 10:00:32;;;;;;;17.90;8.23;;;11.10;64.80;;;11.62;39.69;101863.34;5167999;28;20060;-72
2022/03/06 10:03:05;;;;;;;17.90;8.57;;;11.20;62.10;;;11.74;38.82;101860.41;5168112;28;20046;-70
2022/03/06 10:05:39;;;;;;;17.67;8.02;;;11.30;60.70;;;11.68;39.68;101859.28;5157550;28;20050;-70
2022/03/06 10:08:24;;;;;;;16.83;7.30;;;11.30;61.50;;;11.58;39.66;101861.38;5145298;28;20043;-69
2022/03/06 10:10:58;;;;;;;16.00;8.15;;;11.20;61.30;;;11.49;38.56;101856.63;5166070;28;20051;-70
2022/03/06 10:13:32;;;;;;;19.98;8.23;;;11.20;59.30;;;11.35;38.70;101855.06;5152241;28;20050;-70
2022/03/06 10:16:10;;;;;;;17.35;8.18;;;11.00;59.50;;;11.38;39.09;101855.22;5147038;28;20165;-70
2022/03/06 10:18:46;;;;;;;18.90;8.00;;;10.90;60.50;;;11.30;38.98;101853.94;5321024;23;20045;-73
2022/03/06 10:21:24;;;;;;;20.40;8.57;;;10.80;60.40;;;11.13;39.14;101856.63;5207159;28;20123;-72
2022/03/06 10:24:00;;;;;;;20.45;8.80;;;10.70;60.40;;;11.10;39.65;101853.88;5207695;28;20482;-73
2022/03/06 10:26:33;;;;;;;18.52;8.10;;;10.60;61.90;;;10.96;39.64;101852.31;5190447;28;20046;-73
2022/03/06 10:29:09;;;;;;;17.90;8.18;;;10.40;61.20;;;10.96;39.36;101849.69;5181881;28;20050;-75
2022/03/06 10:31:58;;;;;;;19.38;8.63;;;10.40;61.30;;;11.00;38.89;101849.00;5187445;28;20049;-72
2022/03/06 10:34:38;;;;;;;16.65;8.23;;;10.40;60.50;;;11.07;38.55;101845.88;5173878;28;20453;-75
2022/03/06 10:37:13;;;;;;;16.80;8.43;;;10.50;60.10;;;10.87;39.19;101846.59;5187145;28;20406;-73
2022/03/06 10:39:48;;;;;;;17.75;8.15;;;10.30;60.60;;;10.63;38.65;101850.56;5187624;28;20053;-72